Terminal Aerodrome Forecast
Issued by NWS

Home | Current Version | Previous Version | Text Only | Print | Product List | Glossary On
Versions: 1 2 3 4 5 6 7 8 9 10 11 12 13 14 15 16 17
984
FTUS43 KDVN 111128
TAFCID
TAF
KCID 111128Z 1112/1212 36006KT P6SM SCT200
     FM112100 19005KT P6SM BKN100
     FM120300 21007KT 3SM -SN BR OVC018
     FM120800 28009KT P6SM -SHSN OVC025=

USA.gov is the U.S. government's official web portal to all federal, state and local government web resources and services.